Gotham, WI (53540)

01:19 PM CST die 16o January, anno 2017 (GMT -0600)
Tri-County Regional | | Change Station
Active Advisory: Winter Weather Advisory

Elev 715 ft 43.21 °N, 90.18 °W | Updated 20 minutes ago

Globuli Glaciales
Globuli Glaciales
32 °F
Feels Like 25 °F
N
8
Ventus Variabilis Ventus from Magis Eurus quam Aquilo

Hodie
High -- | Low -- °F
--% Chance of Precip.
Yesterday
High -- | Low -- °F
Precip. -- in
Pressio 30.10 in
Visibilitas 1.8 milia passuum
Clouds Aequaliter Nubila 800 ft
Frigus Venti 25 °F
Frigus in quo Ros apparet 29 °F
Umor 88%
Rainfall 0.10 in
Snow Depth Not available.
7:29 AM 4:52 PM
Waning Gibbous, 79% visible
SPECI KLNR 161859Z AUTO 07007KT 1 3/4SM -FZRA BR OVC008 00/M02 A3010 RMK AO2 P0000 I1000 T00001017
Pressio 30.10 in
Visibilitas 1.8 milia passuum
Clouds Aequaliter Nubila 800 ft
Frigus Venti 25 °F
Frigus in quo Ros apparet 29 °F
Umor 88%
Rainfall 0.10 in
Snow Depth Not available.
7:29 AM 4:52 PM
Waning Gibbous, 79% visible
SPECI KLNR 161859Z AUTO 07007KT 1 3/4SM -FZRA BR OVC008 00/M02 A3010 RMK AO2 P0000 I1000 T00001017

Get Your Daily Forecast Email!

Thanks for signing up!

Be on the lookout for a verification email in your inbox.

You'll start receiving the daily forecast at 8 AM.

×

10-Day Weather Forecast

Almanac

Astronomy

Jan. 16, 2017 Rise Set
Actual Time
Civil Twilight
Nautical Twilight
Astronomical Twilight
Moon
Length Of Visible Light
Length of Day
Tomorrow will be .
, % of the Moon is Illuminated

Today's Extremes

State Highs State Lows

Community

WunderPhotos

Upload Photos

1,962,540 photos uploaded!

WunderBlog® & News

Nearby

Air Quality

  Air Quality AQ Index Pollutant
Not available.

Snow Depth

Station Depth Elevation

Earthquake Activity

City Distance Mag. Time & Date
Minimum magnitude displayed is 2.5.

Coastal Water Temperatures

Locus Calor

Stations

Nearby Weather Stations

Station Location Temp Frigus Venti Frigus in quo Ros apparet Umor Ventus Precip. Elev Renovata Type
                   

Watches & Warnings

Winter Weather Advisory
Issued: 11:00 AM CST Jan. 16, 2017 – National Weather Service

... Winter Weather Advisory remains in effect until noon CST
Tuesday...

* a wintry mix is going to continue... diminishing later tonight
and Tuesday morning.

* The greatest amount of ice accumulation is expected this
afternoon and evening.

* Additional snow and sleet accumulations of up to 1 inch...
mostly north of Interstate 90. Ice accumulations up to 2/10 of
an inch.

* Look for reduced visibilities at times.

* Power outages and tree damage are possible due to the ice.
Travel will be dangerous... including during the evening
commute.

Precautionary/preparedness actions...

A Winter Weather Advisory means that periods of snow... sleet or
freezing rain will cause travel difficulties. Be prepared for
slippery roads and limited visibilities... and use caution while
driving. The latest Road conditions for the state you are calling
from can be obtained by calling 5 1 1.